createdAt,value
2019-03-26T00:00:54.907Z,4.70
2019-03-26T00:03:23.612Z,4.70
2019-03-26T00:05:52.286Z,4.17
2019-03-26T00:08:21.220Z,4.33
2019-03-26T00:10:49.751Z,4.40
2019-03-26T00:13:18.437Z,3.90
2019-03-26T00:15:47.180Z,4.67
2019-03-26T00:18:15.803Z,4.43
2019-03-26T00:20:44.489Z,4.10
2019-03-26T00:23:13.349Z,4.37
2019-03-26T00:25:41.963Z,4.80
2019-03-26T00:28:10.543Z,4.20
2019-03-26T00:30:39.310Z,4.23
2019-03-26T00:33:08.121Z,4.60
2019-03-26T00:35:36.904Z,4.20
2019-03-26T00:38:05.772Z,4.87
2019-03-26T00:40:34.536Z,4.47
2019-03-26T00:43:03.211Z,4.57
2019-03-26T00:45:31.878Z,4.10
2019-03-26T00:48:00.554Z,4.43
2019-03-26T00:50:29.235Z,5.00
2019-03-26T00:52:57.781Z,4.70
2019-03-26T00:55:26.383Z,4.20
2019-03-26T00:57:54.962Z,4.00
2019-03-26T01:00:37.083Z,4.90
2019-03-26T01:03:08.720Z,4.40
2019-03-26T01:05:37.528Z,4.67
2019-03-26T01:08:06.363Z,4.07
2019-03-26T01:10:35.127Z,4.40
2019-03-26T01:13:03.779Z,4.43
2019-03-26T01:15:32.727Z,4.10
2019-03-26T01:18:01.444Z,4.57
2019-03-26T01:20:29.974Z,4.53
2019-03-26T01:22:58.596Z,4.67
2019-03-26T01:25:27.224Z,5.07
2019-03-26T01:27:55.905Z,4.77
2019-03-26T01:30:24.535Z,4.57
2019-03-26T01:32:53.179Z,4.87
2019-03-26T01:35:21.765Z,4.40
2019-03-26T01:37:50.487Z,4.70
2019-03-26T01:40:19.269Z,4.17
2019-03-26T01:42:47.899Z,4.20
2019-03-26T01:45:16.774Z,4.90
2019-03-26T01:47:45.485Z,4.80
2019-03-26T01:50:14.173Z,5.17
2019-03-26T01:52:43.137Z,5.50
2019-03-26T01:55:11.761Z,5.00
2019-03-26T01:57:40.520Z,5.13
2019-03-26T02:00:10.017Z,4.70
2019-03-26T02:02:38.622Z,5.17
2019-03-26T02:05:07.500Z,5.37
2019-03-26T02:07:38.833Z,5.17
2019-03-26T02:10:06.928Z,5.43
2019-03-26T02:12:35.478Z,5.93
2019-03-26T02:15:04.451Z,5.87
2019-03-26T02:17:33.085Z,5.97
2019-03-26T02:20:01.760Z,5.97
2019-03-26T02:22:30.535Z,5.97
2019-03-26T02:24:59.337Z,5.60
2019-03-26T02:27:28.032Z,5.87
2019-03-26T02:29:56.780Z,6.10
2019-03-26T02:32:25.401Z,5.97
2019-03-26T02:34:53.992Z,5.73
2019-03-26T02:37:22.569Z,5.70
2019-03-26T02:39:51.242Z,5.50
2019-03-26T02:42:19.936Z,6.07
2019-03-26T02:44:48.668Z,6.13
2019-03-26T02:47:17.021Z,6.23
2019-03-26T02:49:45.738Z,6.67
2019-03-26T02:52:14.517Z,6.47
2019-03-26T02:54:43.085Z,6.33
2019-03-26T02:57:11.958Z,6.37
2019-03-26T02:59:40.795Z,6.70
2019-03-26T03:02:09.580Z,6.60
2019-03-26T03:04:38.051Z,6.73
2019-03-26T03:07:06.859Z,6.97
2019-03-26T03:09:35.376Z,7.10
2019-03-26T03:12:04.191Z,6.60
2019-03-26T03:14:33.011Z,7.50
2019-03-26T03:17:01.646Z,7.40
2019-03-26T03:19:30.408Z,10.10
2019-03-26T03:21:59.043Z,12.30
2019-03-26T03:24:27.807Z,16.37
2019-03-26T03:26:56.479Z,10.87
2019-03-26T03:29:25.329Z,11.10
2019-03-26T03:31:54.058Z,9.40
2019-03-26T03:34:22.738Z,8.40
2019-03-26T03:36:51.605Z,9.37
2019-03-26T03:39:20.128Z,7.60
2019-03-26T03:41:48.901Z,7.83
2019-03-26T03:44:17.593Z,10.40
2019-03-26T03:46:48.716Z,9.27
2019-03-26T03:49:21.489Z,9.90
2019-03-26T03:51:51.911Z,9.80
2019-03-26T03:54:21.756Z,8.83
2019-03-26T03:56:52.923Z,8.27
2019-03-26T03:59:22.177Z,8.40
2019-03-26T04:01:50.890Z,8.63
2019-03-26T04:04:19.585Z,8.13
2019-03-26T04:06:48.156Z,8.17
2019-03-26T04:09:16.853Z,7.23
2019-03-26T04:11:45.624Z,8.10
2019-03-26T04:14:14.403Z,9.30
2019-03-26T04:16:43.305Z,8.73
2019-03-26T04:19:12.138Z,8.10
2019-03-26T04:21:41.091Z,8.20
2019-03-26T04:24:09.857Z,8.60
2019-03-26T04:26:38.711Z,8.73
2019-03-26T04:29:07.436Z,8.53
2019-03-26T04:31:36.220Z,9.10
2019-03-26T04:34:05.069Z,8.33
2019-03-26T04:36:33.898Z,8.30
2019-03-26T04:39:03.111Z,8.50
2019-03-26T04:41:32.065Z,8.70
2019-03-26T04:44:00.696Z,9.27
2019-03-26T04:46:29.471Z,8.70
2019-03-26T04:48:58.199Z,8.37
2019-03-26T04:51:26.933Z,9.17
2019-03-26T04:53:55.655Z,8.57
2019-03-26T04:56:24.302Z,9.03
2019-03-26T04:58:53.014Z,8.73
2019-03-26T05:01:21.776Z,8.67
2019-03-26T05:03:50.563Z,8.33
2019-03-26T05:06:19.165Z,8.63
2019-03-26T05:08:48.003Z,8.77
2019-03-26T05:11:16.899Z,9.07
2019-03-26T05:13:45.712Z,8.90
2019-03-26T05:16:14.519Z,8.07
2019-03-26T05:18:43.368Z,8.33
2019-03-26T05:21:11.958Z,8.47
2019-03-26T05:23:40.804Z,8.80
2019-03-26T05:26:09.463Z,8.13
2019-03-26T05:28:38.247Z,8.20
2019-03-26T05:31:07.187Z,9.90
2019-03-26T05:33:35.769Z,11.93
2019-03-26T05:36:04.493Z,15.27
2019-03-26T05:38:33.283Z,14.93
2019-03-26T05:41:02.245Z,12.00
2019-03-26T05:43:30.860Z,12.10
2019-03-26T05:45:59.716Z,12.07
2019-03-26T05:48:28.768Z,10.60
2019-03-26T05:50:57.417Z,9.90
2019-03-26T05:53:26.121Z,10.90
2019-03-26T05:55:54.992Z,13.70
2019-03-26T05:58:24.007Z,18.30
2019-03-26T06:00:52.704Z,25.03
2019-03-26T06:03:21.527Z,35.00
2019-03-26T06:05:50.048Z,36.03
2019-03-26T06:08:37.542Z,43.37
2019-03-26T06:11:06.273Z,36.97
2019-03-26T06:13:35.045Z,35.30
2019-03-26T06:16:03.811Z,29.13
2019-03-26T06:18:32.460Z,22.83
2019-03-26T06:21:01.316Z,21.60
2019-03-26T06:23:30.121Z,20.03
2019-03-26T06:25:58.784Z,21.97
2019-03-26T06:28:27.452Z,21.30
2019-03-26T06:30:56.436Z,21.10
2019-03-26T06:33:25.141Z,21.42
2019-03-26T06:35:53.848Z,17.63
2019-03-26T06:38:22.563Z,15.80
2019-03-26T06:40:51.364Z,14.07
2019-03-26T06:43:19.919Z,13.20
2019-03-26T06:45:48.534Z,13.47
2019-03-26T06:48:17.307Z,13.83
2019-03-26T06:50:46.052Z,12.87
2019-03-26T06:53:14.832Z,9.50
2019-03-26T06:55:43.620Z,9.67
2019-03-26T06:58:12.339Z,8.87
2019-03-26T07:00:41.284Z,9.00
2019-03-26T07:03:09.973Z,9.73
2019-03-26T07:05:38.775Z,9.13
2019-03-26T07:08:07.626Z,10.00
2019-03-26T07:10:36.299Z,9.33
2019-03-26T07:13:05.017Z,9.30
2019-03-26T07:15:33.791Z,9.20
2019-03-26T07:18:02.634Z,10.27
2019-03-26T07:20:31.317Z,9.10
2019-03-26T07:23:00.158Z,9.13
2019-03-26T07:25:28.870Z,11.60
2019-03-26T07:27:58.091Z,9.17
2019-03-26T07:30:37.665Z,8.47
2019-03-26T07:33:06.637Z,9.20
2019-03-26T07:35:35.311Z,9.20
2019-03-26T07:38:04.128Z,9.47
2019-03-26T07:40:33.016Z,9.40
2019-03-26T07:43:01.765Z,8.90
2019-03-26T07:45:30.744Z,9.17
2019-03-26T07:47:59.411Z,8.87
2019-03-26T07:50:28.025Z,8.93
2019-03-26T07:52:56.853Z,9.10
2019-03-26T07:55:25.608Z,9.03
2019-03-26T07:57:54.379Z,8.67
2019-03-26T08:00:32.545Z,8.60
2019-03-26T08:03:01.464Z,10.63
2019-03-26T08:05:30.291Z,9.13
2019-03-26T08:07:59.159Z,9.17
2019-03-26T08:10:27.893Z,8.80
2019-03-26T08:12:56.647Z,9.10
2019-03-26T08:15:25.370Z,9.13
2019-03-26T08:17:54.068Z,9.10
2019-03-26T08:20:22.574Z,9.23
2019-03-26T08:22:51.431Z,9.70
2019-03-26T08:25:20.191Z,9.13
2019-03-26T08:27:48.837Z,8.60
2019-03-26T08:30:17.713Z,9.03
2019-03-26T08:32:46.342Z,9.97
2019-03-26T08:35:14.879Z,8.80
2019-03-26T08:37:43.537Z,8.90
2019-03-26T08:40:12.372Z,8.53
2019-03-26T08:42:40.971Z,8.87
2019-03-26T08:45:09.787Z,8.47
2019-03-26T08:47:38.614Z,8.37
2019-03-26T08:50:07.735Z,8.53
2019-03-26T08:52:36.560Z,8.73
2019-03-26T08:55:06.319Z,9.07
2019-03-26T08:57:34.883Z,8.67
2019-03-26T09:00:03.953Z,8.90
2019-03-26T09:02:32.675Z,9.33
2019-03-26T09:05:01.456Z,8.87
2019-03-26T09:07:30.217Z,8.77
2019-03-26T09:09:58.868Z,9.47
2019-03-26T09:12:27.606Z,8.27
2019-03-26T09:14:56.497Z,10.20
2019-03-26T09:17:25.187Z,9.97
2019-03-26T09:19:53.876Z,10.43
2019-03-26T09:22:22.732Z,11.07
2019-03-26T09:24:51.471Z,10.10
2019-03-26T09:27:20.172Z,9.57
2019-03-26T09:29:48.996Z,9.63
2019-03-26T09:32:17.864Z,9.37
2019-03-26T09:34:46.808Z,9.87
2019-03-26T09:37:15.555Z,10.03
2019-03-26T09:39:44.387Z,9.47
2019-03-26T09:42:13.055Z,9.70
2019-03-26T09:44:41.815Z,9.23
2019-03-26T09:47:16.124Z,9.63
2019-03-26T09:49:41.078Z,8.70
2019-03-26T09:52:09.725Z,8.57
2019-03-26T09:54:38.436Z,9.30
2019-03-26T09:57:07.325Z,8.63
2019-03-26T09:59:35.980Z,8.03
2019-03-26T10:02:04.619Z,7.93
2019-03-26T10:04:33.421Z,8.87
2019-03-26T10:07:02.218Z,8.80
2019-03-26T10:09:30.983Z,8.33
2019-03-26T10:11:59.736Z,9.07
2019-03-26T10:14:28.406Z,9.13
2019-03-26T10:16:57.239Z,8.83
2019-03-26T10:19:25.911Z,9.40
2019-03-26T10:21:54.669Z,9.70
2019-03-26T10:24:23.283Z,9.63
2019-03-26T10:26:52.046Z,9.37
2019-03-26T10:29:30.176Z,9.67
2019-03-26T10:31:51.212Z,9.30
2019-03-26T10:34:19.654Z,9.53
2019-03-26T10:36:48.729Z,9.70
2019-03-26T10:39:17.362Z,9.17
2019-03-26T10:41:46.029Z,9.50
2019-03-26T10:44:14.879Z,9.43
2019-03-26T10:46:44.679Z,9.83
2019-03-26T10:49:13.116Z,9.53
2019-03-26T10:51:42.066Z,9.93
2019-03-26T10:54:10.867Z,8.63
2019-03-26T10:56:39.586Z,9.17
2019-03-26T10:59:08.491Z,9.40
2019-03-26T11:01:37.244Z,9.37
2019-03-26T11:04:07.721Z,9.30
2019-03-26T11:06:36.665Z,10.33
2019-03-26T11:09:20.037Z,9.27
2019-03-26T11:11:37.241Z,8.87
2019-03-26T11:14:05.856Z,8.63
2019-03-26T11:16:34.387Z,9.67
2019-03-26T11:19:03.067Z,8.90
2019-03-26T11:21:31.845Z,9.53
2019-03-26T11:24:00.528Z,8.33
2019-03-26T11:26:29.323Z,9.23
2019-03-26T11:28:58.167Z,9.83
2019-03-26T11:31:29.878Z,8.07
2019-03-26T11:33:57.447Z,8.30
2019-03-26T11:36:26.070Z,9.10
2019-03-26T11:38:54.893Z,9.00
2019-03-26T11:41:23.479Z,8.10
2019-03-26T11:43:52.439Z,8.05
2019-03-26T11:46:21.048Z,7.80
2019-03-26T11:48:49.733Z,9.20
2019-03-26T11:51:18.551Z,8.60
2019-03-26T11:53:47.230Z,8.97
2019-03-26T11:56:15.949Z,8.63
2019-03-26T11:58:44.639Z,8.90
2019-03-26T12:01:13.474Z,9.30
2019-03-26T12:03:42.207Z,9.40
2019-03-26T12:06:10.920Z,8.90
2019-03-26T12:08:39.750Z,8.47
2019-03-26T12:11:08.435Z,8.17
2019-03-26T12:13:37.207Z,7.43
2019-03-26T12:16:06.104Z,6.97
2019-03-26T12:18:34.872Z,7.40
2019-03-26T12:21:03.737Z,6.87
2019-03-26T12:23:32.104Z,7.10
2019-03-26T12:26:00.753Z,8.23
2019-03-26T12:28:29.391Z,7.90
2019-03-26T12:30:58.200Z,7.17
2019-03-26T12:33:26.793Z,7.90
2019-03-26T12:35:55.548Z,7.70
2019-03-26T12:38:24.155Z,8.07
2019-03-26T12:40:52.973Z,7.90
2019-03-26T12:43:21.851Z,6.33
2019-03-26T12:45:50.839Z,6.27
2019-03-26T12:48:19.630Z,6.47
2019-03-26T12:50:48.520Z,7.53
2019-03-26T12:53:17.186Z,6.33
2019-03-26T12:55:45.929Z,21.87
2019-03-26T12:58:14.843Z,7.00
2019-03-26T13:00:46.510Z,6.37
2019-03-26T13:03:15.322Z,6.47
2019-03-26T13:05:44.006Z,6.47
2019-03-26T13:08:12.988Z,6.87
2019-03-26T13:10:52.916Z,6.10
2019-03-26T13:13:12.269Z,6.37
2019-03-26T13:15:40.995Z,7.60
2019-03-26T13:18:11.190Z,5.90
2019-03-26T13:20:40.066Z,7.03
2019-03-26T13:23:08.808Z,6.00
2019-03-26T13:25:37.491Z,6.87
2019-03-26T13:28:06.275Z,5.50
2019-03-26T13:30:35.147Z,5.77
2019-03-26T13:33:03.940Z,6.37
2019-03-26T13:35:32.780Z,5.40
2019-03-26T13:38:01.523Z,6.33
2019-03-26T13:40:30.192Z,6.70
2019-03-26T13:42:58.952Z,5.83
2019-03-26T13:45:27.785Z,6.23
2019-03-26T13:47:56.448Z,6.50
2019-03-26T13:50:25.267Z,7.27
2019-03-26T13:52:54.133Z,7.20
2019-03-26T13:55:22.715Z,6.60
2019-03-26T13:57:51.455Z,7.13
2019-03-26T14:00:35.239Z,6.13
2019-03-26T14:03:04.314Z,7.07
2019-03-26T14:05:33.024Z,7.10
2019-03-26T14:08:01.804Z,6.03
2019-03-26T14:10:40.665Z,6.07
2019-03-26T14:13:01.508Z,6.60
2019-03-26T14:15:31.347Z,6.73
2019-03-26T14:18:00.070Z,6.57
2019-03-26T14:20:28.743Z,7.37
2019-03-26T14:22:57.399Z,7.10
2019-03-26T14:25:26.173Z,7.20
2019-03-26T14:27:54.884Z,6.10
2019-03-26T14:30:41.131Z,6.57
2019-03-26T14:33:10.271Z,6.87
2019-03-26T14:35:38.966Z,6.27
2019-03-26T14:38:07.696Z,7.93
2019-03-26T14:40:36.437Z,7.53
2019-03-26T14:43:05.241Z,6.37
2019-03-26T14:45:34.069Z,6.47
2019-03-26T14:48:02.682Z,7.83
2019-03-26T14:50:31.435Z,5.70
2019-03-26T14:53:00.125Z,6.27
2019-03-26T14:55:28.851Z,5.93
2019-03-26T14:57:57.526Z,6.07
2019-03-26T15:00:45.031Z,6.23
2019-03-26T15:03:13.846Z,6.13
2019-03-26T15:05:42.437Z,6.40
2019-03-26T15:08:11.220Z,5.57
2019-03-26T15:10:39.912Z,5.87
2019-03-26T15:13:08.532Z,5.40
2019-03-26T15:15:37.545Z,6.90
2019-03-26T15:18:06.301Z,6.83
2019-03-26T15:20:34.972Z,6.20
2019-03-26T15:23:03.908Z,5.83
2019-03-26T15:25:32.628Z,5.30
2019-03-26T15:28:01.303Z,5.83
2019-03-26T15:30:30.317Z,5.77
2019-03-26T15:32:58.997Z,5.83
2019-03-26T15:35:27.572Z,6.13
2019-03-26T15:37:56.363Z,5.27
2019-03-26T15:40:24.856Z,5.60
2019-03-26T15:42:53.730Z,5.63
2019-03-26T15:45:22.492Z,5.07
2019-03-26T15:47:51.008Z,5.47
2019-03-26T15:50:39.406Z,5.83
2019-03-26T15:53:08.328Z,5.87
2019-03-26T15:55:36.927Z,6.47
2019-03-26T15:58:05.660Z,6.03
2019-03-26T16:00:34.209Z,6.47
2019-03-26T16:03:03.004Z,5.73
2019-03-26T16:05:31.718Z,5.27
2019-03-26T16:08:00.818Z,5.33
2019-03-26T16:10:29.464Z,7.43
2019-03-26T16:12:58.101Z,6.07
2019-03-26T16:15:27.742Z,4.93
2019-03-26T16:17:56.679Z,5.80
2019-03-26T16:20:25.319Z,4.53
2019-03-26T16:23:12.812Z,7.80
2019-03-26T16:25:41.422Z,6.57
2019-03-26T16:28:10.128Z,4.73
2019-03-26T16:30:39.954Z,5.50
2019-03-26T16:33:08.707Z,5.00
2019-03-26T16:35:40.059Z,5.43
2019-03-26T16:38:07.979Z,5.40
2019-03-26T16:40:36.506Z,5.13
2019-03-26T16:43:05.224Z,4.77
2019-03-26T16:45:34.131Z,4.77
2019-03-26T16:48:02.683Z,5.03
2019-03-26T16:50:31.358Z,5.33
2019-03-26T16:53:00.100Z,6.27
2019-03-26T16:55:28.738Z,5.07
2019-03-26T16:57:57.395Z,5.30
2019-03-26T17:00:33.100Z,5.17
2019-03-26T17:03:01.793Z,5.37
2019-03-26T17:05:30.333Z,4.97
2019-03-26T17:07:59.019Z,5.20
2019-03-26T17:10:27.667Z,5.33
2019-03-26T17:12:56.497Z,4.67
2019-03-26T17:15:25.093Z,3.93
2019-03-26T17:17:53.848Z,5.60
2019-03-26T17:20:24.014Z,5.07
2019-03-26T17:22:52.955Z,4.97
2019-03-26T17:25:21.339Z,5.10
2019-03-26T17:27:49.622Z,5.00
2019-03-26T17:30:17.953Z,6.00
2019-03-26T17:32:46.675Z,5.53
2019-03-26T17:35:15.292Z,5.50
2019-03-26T17:37:43.881Z,5.20
2019-03-26T17:40:12.721Z,5.23
2019-03-26T17:42:41.320Z,5.73
2019-03-26T17:45:10.114Z,4.97
2019-03-26T17:47:38.774Z,5.70
2019-03-26T17:50:07.963Z,5.17
2019-03-26T17:52:36.738Z,5.23
2019-03-26T17:55:05.882Z,5.57
2019-03-26T17:57:34.644Z,5.53
2019-03-26T18:00:03.682Z,5.47
2019-03-26T18:02:32.324Z,5.03
2019-03-26T18:05:01.018Z,5.93
2019-03-26T18:07:29.728Z,6.03
2019-03-26T18:09:58.422Z,7.00
2019-03-26T18:12:31.135Z,10.93
2019-03-26T18:14:57.676Z,6.67
2019-03-26T18:17:26.281Z,6.10
2019-03-26T18:19:55.073Z,5.70
2019-03-26T18:22:23.758Z,5.93
2019-03-26T18:24:52.554Z,6.33
2019-03-26T18:27:21.123Z,5.43
2019-03-26T18:29:49.679Z,5.80
2019-03-26T18:32:18.299Z,5.83
2019-03-26T18:34:46.753Z,6.10
2019-03-26T18:37:15.468Z,5.40
2019-03-26T18:39:43.924Z,6.20
2019-03-26T18:42:12.630Z,6.00
2019-03-26T18:44:41.541Z,5.67
2019-03-26T18:47:10.136Z,5.50
2019-03-26T18:49:38.820Z,6.00
2019-03-26T18:52:07.273Z,5.60
2019-03-26T18:54:36.314Z,7.37
2019-03-26T18:57:05.361Z,5.73
2019-03-26T18:59:34.070Z,10.20
2019-03-26T19:02:02.833Z,6.00
2019-03-26T19:04:31.498Z,6.60
2019-03-26T19:07:00.220Z,5.33
2019-03-26T19:09:28.652Z,6.50
2019-03-26T19:11:57.263Z,6.20
2019-03-26T19:14:26.081Z,5.67
2019-03-26T19:16:54.728Z,6.57
2019-03-26T19:19:23.245Z,5.73
2019-03-26T19:21:52.061Z,5.37
2019-03-26T19:24:20.814Z,6.80
2019-03-26T19:26:49.263Z,6.07
2019-03-26T19:29:18.130Z,6.80
2019-03-26T19:31:46.848Z,6.70
2019-03-26T19:34:15.624Z,6.17
2019-03-26T19:36:44.371Z,6.50
2019-03-26T19:39:12.922Z,6.43
2019-03-26T19:41:41.567Z,8.93
2019-03-26T19:44:10.055Z,7.17
2019-03-26T19:46:38.652Z,6.50
2019-03-26T19:49:07.152Z,6.23
2019-03-26T19:51:36.025Z,6.60
2019-03-26T19:54:04.813Z,5.50
2019-03-26T19:56:33.168Z,6.00
2019-03-26T19:59:01.838Z,6.00
2019-03-26T20:01:30.447Z,6.43
2019-03-26T20:03:59.143Z,6.57
2019-03-26T20:06:27.873Z,6.53
2019-03-26T20:08:56.299Z,6.23
2019-03-26T20:11:24.788Z,5.60
2019-03-26T20:13:53.427Z,5.97
2019-03-26T20:16:22.073Z,6.43
2019-03-26T20:18:50.835Z,7.17
2019-03-26T20:21:19.571Z,7.20
2019-03-26T20:23:48.307Z,6.17
2019-03-26T20:26:17.103Z,6.73
2019-03-26T20:28:45.952Z,7.63
2019-03-26T20:31:14.567Z,7.33
2019-03-26T20:33:43.363Z,7.00
2019-03-26T20:36:12.147Z,7.30
2019-03-26T20:38:40.728Z,6.60
2019-03-26T20:41:09.402Z,6.13
2019-03-26T20:43:38.111Z,6.37
2019-03-26T20:46:06.889Z,6.40
2019-03-26T20:48:35.566Z,5.20
2019-03-26T20:51:04.157Z,6.43
2019-03-26T20:53:32.744Z,7.87
2019-03-26T20:56:01.525Z,5.73
2019-03-26T20:58:30.579Z,11.63
2019-03-26T21:00:59.447Z,6.67
2019-03-26T21:03:28.115Z,7.85
2019-03-26T21:05:56.845Z,18.07
2019-03-26T21:08:25.451Z,15.97
2019-03-26T21:10:54.157Z,6.20
2019-03-26T21:13:23.010Z,9.20
2019-03-26T21:15:57.178Z,6.20
2019-03-26T21:18:22.165Z,6.17
2019-03-26T21:20:50.875Z,14.27
2019-03-26T21:23:19.583Z,5.90
2019-03-26T21:25:48.208Z,6.20
2019-03-26T21:28:17.114Z,6.17
2019-03-26T21:30:45.789Z,5.43
2019-03-26T21:33:14.458Z,9.13
2019-03-26T21:35:43.439Z,7.13
2019-03-26T21:38:12.056Z,5.73
2019-03-26T21:40:40.830Z,5.47
2019-03-26T21:43:09.480Z,5.87
2019-03-26T21:45:39.345Z,7.23
2019-03-26T21:48:09.016Z,7.23
2019-03-26T21:50:37.765Z,7.03
2019-03-26T21:53:06.327Z,8.03
2019-03-26T21:55:35.217Z,9.67
2019-03-26T21:58:04.053Z,7.97
2019-03-26T22:00:32.773Z,8.27
2019-03-26T22:03:01.259Z,7.90
2019-03-26T22:05:30.115Z,7.50
2019-03-26T22:07:58.725Z,8.10
2019-03-26T22:10:27.407Z,8.47
2019-03-26T22:12:56.279Z,10.33
2019-03-26T22:15:24.892Z,8.33
2019-03-26T22:17:53.578Z,8.17
2019-03-26T22:20:22.315Z,9.60
2019-03-26T22:22:51.067Z,8.63
2019-03-26T22:25:19.824Z,8.43
2019-03-26T22:27:49.524Z,7.77
2019-03-26T22:30:18.451Z,8.83
2019-03-26T22:32:47.218Z,8.73
2019-03-26T22:35:15.967Z,8.00
2019-03-26T22:37:44.693Z,8.37
2019-03-26T22:40:13.602Z,8.00
2019-03-26T22:42:42.351Z,8.77
2019-03-26T22:45:11.459Z,9.87
2019-03-26T22:47:40.246Z,9.77
2019-03-26T22:50:11.480Z,8.63
2019-03-26T22:52:39.975Z,9.13
2019-03-26T22:55:09.722Z,8.90
2019-03-26T22:57:38.903Z,8.77
2019-03-26T23:00:10.454Z,9.27
2019-03-26T23:02:39.398Z,7.97
2019-03-26T23:05:09.136Z,8.40
2019-03-26T23:07:37.844Z,8.53
2019-03-26T23:10:07.935Z,9.20
2019-03-26T23:12:36.591Z,9.07
2019-03-26T23:15:14.739Z,8.57
2019-03-26T23:17:43.588Z,9.33
2019-03-26T23:20:12.213Z,8.70
2019-03-26T23:22:41.011Z,8.60
2019-03-26T23:25:10.275Z,9.47
2019-03-26T23:27:38.967Z,9.33
2019-03-26T23:30:09.204Z,9.13
2019-03-26T23:32:38.075Z,8.77
2019-03-26T23:35:07.629Z,8.23
2019-03-26T23:37:36.415Z,8.57
2019-03-26T23:40:05.420Z,8.30
2019-03-26T23:42:33.876Z,8.40
2019-03-26T23:45:02.655Z,9.33
2019-03-26T23:47:31.519Z,8.70
2019-03-26T23:50:00.388Z,8.80
2019-03-26T23:52:28.820Z,8.93
2019-03-26T23:54:59.944Z,8.70
2019-03-26T23:57:28.750Z,8.70
2019-03-26T23:59:57.538Z,8.43
